sensor_id;sensor_type;location;lat;lon;timestamp;pressure;altitude;pressure_sealevel;temperature;humidity
39301;BME280;25019;42.626;23.380;2023-05-22T00:02:04;94204.22;;;13.20;100.00
39301;BME280;25019;42.626;23.380;2023-05-22T00:04:30;94102.50;;;12.61;100.00
39301;BME280;25019;42.626;23.380;2023-05-22T00:06:56;94181.84;;;13.21;100.00
39301;BME280;25019;42.626;23.380;2023-05-22T00:09:23;94198.59;;;13.37;100.00
39301;BME280;25019;42.626;23.380;2023-05-22T00:11:50;94196.22;;;13.30;100.00
39301;BME280;25019;42.626;23.380;2023-05-22T00:14:15;94197.53;;;13.33;100.00
39301;BME280;25019;42.626;23.380;2023-05-22T00:16:41;94197.53;;;13.33;100.00
39301;BME280;25019;42.626;23.380;2023-05-22T00:19:07;94173.06;;;13.21;100.00
39301;BME280;25019;42.626;23.380;2023-05-22T00:21:44;94149.06;;;13.10;100.00
39301;BME280;25019;42.626;23.380;2023-05-22T00:24:11;94121.88;;;13.03;100.00
39301;BME280;25019;42.626;23.380;2023-05-22T00:26:36;94194.84;;;13.59;100.00
39301;BME280;25019;42.626;23.380;2023-05-22T00:29:02;94175.63;;;13.57;100.00
39301;BME280;25019;42.626;23.380;2023-05-22T00:31:30;94186.28;;;13.67;100.00
39301;BME280;25019;42.626;23.380;2023-05-22T00:33:57;94183.06;;;13.70;100.00
39301;BME280;25019;42.626;23.380;2023-05-22T00:36:23;94183.59;;;13.72;100.00
39301;BME280;25019;42.626;23.380;2023-05-22T00:38:49;94071.25;;;12.98;100.00
39301;BME280;25019;42.626;23.380;2023-05-22T00:41:15;94190.25;;;13.75;100.00
39301;BME280;25019;42.626;23.380;2023-05-22T00:43:40;94176.13;;;13.69;100.00
39301;BME280;25019;42.626;23.380;2023-05-22T00:46:06;94184.38;;;13.73;100.00
39301;BME280;25019;42.626;23.380;2023-05-22T00:48:33;94178.56;;;13.66;100.00
39301;BME280;25019;42.626;23.380;2023-05-22T00:50:59;94187.34;;;13.71;100.00
39301;BME280;25019;42.626;23.380;2023-05-22T00:53:27;94185.22;;;13.58;100.00
39301;BME280;25019;42.626;23.380;2023-05-22T00:55:53;94184.75;;;13.45;100.00
39301;BME280;25019;42.626;23.380;2023-05-22T00:58:19;94185.78;;;13.39;100.00
39301;BME280;25019;42.626;23.380;2023-05-22T01:00:46;94124.59;;;12.87;100.00
39301;BME280;25019;42.626;23.380;2023-05-22T01:03:12;94191.97;;;13.24;100.00
39301;BME280;25019;42.626;23.380;2023-05-22T01:05:39;94146.44;;;12.95;100.00
39301;BME280;25019;42.626;23.380;2023-05-22T01:08:07;94154.94;;;13.07;100.00
39301;BME280;25019;42.626;23.380;2023-05-22T01:10:34;94187.69;;;13.28;100.00
39301;BME280;25019;42.626;23.380;2023-05-22T01:13:26;94195.41;;;13.35;100.00
39301;BME280;25019;42.626;23.380;2023-05-22T01:16:23;94198.63;;;13.42;100.00
39301;BME280;25019;42.626;23.380;2023-05-22T01:22:11;94192.47;;;13.52;100.00
39301;BME280;25019;42.626;23.380;2023-05-22T01:30:16;94185.53;;;13.51;100.00
39301;BME280;25019;42.626;23.380;2023-05-22T01:32:45;94128.53;;;13.11;100.00
39301;BME280;25019;42.626;23.380;2023-05-22T01:35:14;94184.72;;;13.40;100.00
39301;BME280;25019;42.626;23.380;2023-05-22T01:37:42;94185.53;;;13.41;100.00
39301;BME280;25019;42.626;23.380;2023-05-22T01:40:09;94177.53;;;13.36;100.00
39301;BME280;25019;42.626;23.380;2023-05-22T01:42:37;94189.00;;;13.31;100.00
39301;BME280;25019;42.626;23.380;2023-05-22T01:45:08;94155.47;;;13.09;100.00
39301;BME280;25019;42.626;23.380;2023-05-22T01:47:33;94175.19;;;13.18;100.00
39301;BME280;25019;42.626;23.380;2023-05-22T01:50:00;94148.56;;;12.87;100.00
39301;BME280;25019;42.626;23.380;2023-05-22T01:52:53;94180.53;;;13.03;100.00
39301;BME280;25019;42.626;23.380;2023-05-22T01:58:26;94158.44;;;12.82;100.00
39301;BME280;25019;42.626;23.380;2023-05-22T02:00:55;94162.44;;;12.79;100.00
39301;BME280;25019;42.626;23.380;2023-05-22T02:03:22;94179.50;;;12.88;100.00
39301;BME280;25019;42.626;23.380;2023-05-22T02:05:53;94173.34;;;12.83;100.00
39301;BME280;25019;42.626;23.380;2023-05-22T02:08:20;94174.44;;;12.82;100.00
39301;BME280;25019;42.626;23.380;2023-05-22T02:10:51;94056.94;;;11.95;100.00
39301;BME280;25019;42.626;23.380;2023-05-22T02:13:21;94102.50;;;12.20;100.00
39301;BME280;25019;42.626;23.380;2023-05-22T02:15:48;94174.16;;;12.63;100.00
39301;BME280;25019;42.626;23.380;2023-05-22T02:18:14;94075.56;;;11.95;100.00
39301;BME280;25019;42.626;23.380;2023-05-22T02:20:41;94185.09;;;12.66;100.00
39301;BME280;25019;42.626;23.380;2023-05-22T02:23:07;94167.47;;;12.55;100.00
39301;BME280;25019;42.626;23.380;2023-05-22T02:25:33;94178.94;;;12.55;100.00
39301;BME280;25019;42.626;23.380;2023-05-22T02:27:59;94193.88;;;12.56;100.00
39301;BME280;25019;42.626;23.380;2023-05-22T02:30:26;94176.28;;;12.45;100.00
39301;BME280;25019;42.626;23.380;2023-05-22T02:32:53;94184.25;;;12.45;100.00
39301;BME280;25019;42.626;23.380;2023-05-22T02:35:18;94178.41;;;12.38;100.00
39301;BME280;25019;42.626;23.380;2023-05-22T02:37:44;94170.69;;;12.26;100.00
39301;BME280;25019;42.626;23.380;2023-05-22T02:40:11;94177.59;;;12.22;100.00
39301;BME280;25019;42.626;23.380;2023-05-22T02:42:37;94175.44;;;12.19;100.00
39301;BME280;25019;42.626;23.380;2023-05-22T02:45:05;94111.72;;;11.76;100.00
39301;BME280;25019;42.626;23.380;2023-05-22T02:47:30;94162.91;;;12.14;100.00
39301;BME280;25019;42.626;23.380;2023-05-22T02:49:56;94125.31;;;11.90;100.00
39301;BME280;25019;42.626;23.380;2023-05-22T02:52:24;94179.16;;;12.07;100.00
39301;BME280;25019;42.626;23.380;2023-05-22T02:54:50;94162.84;;;11.93;100.00
39301;BME280;25019;42.626;23.380;2023-05-22T02:57:16;94127.41;;;11.67;100.00
39301;BME280;25019;42.626;23.380;2023-05-22T02:59:41;94172.69;;;11.93;100.00
39301;BME280;25019;42.626;23.380;2023-05-22T03:02:07;94130.28;;;11.60;100.00
39301;BME280;25019;42.626;23.380;2023-05-22T03:04:33;94088.19;;;11.36;100.00
39301;BME280;25019;42.626;23.380;2023-05-22T03:07:02;94081.53;;;11.29;100.00
39301;BME280;25019;42.626;23.380;2023-05-22T03:09:28;94172.69;;;11.88;100.00
39301;BME280;25019;42.626;23.380;2023-05-22T03:11:54;94146.56;;;11.69;100.00
39301;BME280;25019;42.626;23.380;2023-05-22T03:14:19;94171.88;;;11.87;100.00
39301;BME280;25019;42.626;23.380;2023-05-22T03:16:45;94106.25;;;11.34;100.00
39301;BME280;25019;42.626;23.380;2023-05-22T03:19:12;94054.03;;;10.97;100.00
39301;BME280;25019;42.626;23.380;2023-05-22T03:21:39;94181.72;;;11.81;100.00
39301;BME280;25019;42.626;23.380;2023-05-22T03:24:06;94109.72;;;11.35;100.00
39301;BME280;25019;42.626;23.380;2023-05-22T03:26:32;94184.91;;;11.83;100.00
39301;BME280;25019;42.626;23.380;2023-05-22T03:28:59;94182.25;;;11.83;100.00
39301;BME280;25019;42.626;23.380;2023-05-22T03:31:28;94185.72;;;11.84;100.00
39301;BME280;25019;42.626;23.380;2023-05-22T03:34:06;94183.31;;;11.88;100.00
39301;BME280;25019;42.626;23.380;2023-05-22T03:36:34;94045.81;;;11.04;100.00
39301;BME280;25019;42.626;23.380;2023-05-22T03:39:03;94163.94;;;11.97;100.00
39301;BME280;25019;42.626;23.380;2023-05-22T03:41:32;94184.81;;;12.37;100.00
39301;BME280;25019;42.626;23.380;2023-05-22T03:43:58;94165.38;;;12.52;100.00
39301;BME280;25019;42.626;23.380;2023-05-22T03:46:24;94148.31;;;12.68;100.00
39301;BME280;25019;42.626;23.380;2023-05-22T03:48:51;94171.75;;;13.08;100.00
39301;BME280;25019;42.626;23.380;2023-05-22T03:51:17;94189.00;;;13.52;100.00
39301;BME280;25019;42.626;23.380;2023-05-22T03:53:43;94169.38;;;13.87;100.00
39301;BME280;25019;42.626;23.380;2023-05-22T03:56:08;94165.44;;;14.24;100.00
39301;BME280;25019;42.626;23.380;2023-05-22T03:58:34;94171.22;;;14.42;100.00
39301;BME280;25019;42.626;23.380;2023-05-22T04:00:59;94183.69;;;14.52;100.00
39301;BME280;25019;42.626;23.380;2023-05-22T04:03:26;94186.56;;;14.61;98.52
39301;BME280;25019;42.626;23.380;2023-05-22T04:05:52;94181.28;;;14.50;97.57
39301;BME280;25019;42.626;23.380;2023-05-22T04:08:18;94183.63;;;14.62;97.16
39301;BME280;25019;42.626;23.380;2023-05-22T04:10:43;94134.00;;;14.51;95.77
39301;BME280;25019;42.626;23.380;2023-05-22T04:13:14;94190.81;;;15.02;94.97
39301;BME280;25019;42.626;23.380;2023-05-22T04:15:40;94179.47;;;15.15;93.92
39301;BME280;25019;42.626;23.380;2023-05-22T04:18:07;94166.88;;;15.45;92.19
39301;BME280;25019;42.626;23.380;2023-05-22T04:20:33;94183.94;;;15.98;88.90
39301;BME280;25019;42.626;23.380;2023-05-22T04:22:59;94184.53;;;16.52;85.47
39301;BME280;25019;42.626;23.380;2023-05-22T04:25:25;94177.88;;;17.02;81.59
39301;BME280;25019;42.626;23.380;2023-05-22T04:27:51;94175.69;;;17.51;77.58
39301;BME280;25019;42.626;23.380;2023-05-22T04:30:18;94180.66;;;18.14;73.68
39301;BME280;25019;42.626;23.380;2023-05-22T04:32:43;94191.53;;;18.59;70.60
39301;BME280;25019;42.626;23.380;2023-05-22T04:35:09;94116.00;;;18.33;69.00
39301;BME280;25019;42.626;23.380;2023-05-22T04:37:40;94184.34;;;19.45;66.22
39301;BME280;25019;42.626;23.380;2023-05-22T04:40:07;94152.78;;;19.86;63.93
39301;BME280;25019;42.626;23.380;2023-05-22T04:42:34;94190.06;;;20.69;60.73
39301;BME280;25019;42.626;23.380;2023-05-22T04:45:02;94189.72;;;21.32;58.68
39301;BME280;25019;42.626;23.380;2023-05-22T04:47:28;94189.91;;;21.74;56.71
39301;BME280;25019;42.626;23.380;2023-05-22T04:49:59;94190.28;;;22.24;54.84
39301;BME280;25019;42.626;23.380;2023-05-22T04:52:28;94172.56;;;22.65;53.54
39301;BME280;25019;42.626;23.380;2023-05-22T04:54:53;94185.78;;;23.00;53.11
39301;BME280;25019;42.626;23.380;2023-05-22T04:57:20;94177.03;;;23.37;51.59
39301;BME280;25019;42.626;23.380;2023-05-22T04:59:46;94125.63;;;23.28;50.96
39301;BME280;25019;42.626;23.380;2023-05-22T05:02:13;94176.97;;;23.96;50.16
39301;BME280;25019;42.626;23.380;2023-05-22T05:04:39;94180.59;;;24.24;49.06
39301;BME280;25019;42.626;23.380;2023-05-22T05:07:06;94177.97;;;24.28;47.90
39301;BME280;25019;42.626;23.380;2023-05-22T05:09:34;94172.19;;;24.42;47.51
39301;BME280;25019;42.626;23.380;2023-05-22T05:12:00;94170.50;;;24.50;46.49
39301;BME280;25019;42.626;23.380;2023-05-22T05:14:26;94177.38;;;24.72;46.57
39301;BME280;25019;42.626;23.380;2023-05-22T05:16:52;94186.88;;;25.07;45.61
39301;BME280;25019;42.626;23.380;2023-05-22T05:19:18;94180.44;;;25.27;45.76
39301;BME280;25019;42.626;23.380;2023-05-22T05:21:47;94191.00;;;25.45;45.43
39301;BME280;25019;42.626;23.380;2023-05-22T05:24:15;94189.38;;;25.56;44.21
39301;BME280;25019;42.626;23.380;2023-05-22T05:26:41;94176.38;;;25.82;43.83
39301;BME280;25019;42.626;23.380;2023-05-22T05:29:07;94130.25;;;25.69;43.16
39301;BME280;25019;42.626;23.380;2023-05-22T05:31:38;94183.97;;;26.21;42.52
39301;BME280;25019;42.626;23.380;2023-05-22T05:34:24;94170.66;;;26.35;41.98
39301;BME280;25019;42.626;23.380;2023-05-22T05:37:02;94180.59;;;26.63;40.29
39301;BME280;25019;42.626;23.380;2023-05-22T05:39:27;94188.28;;;26.77;39.40
39301;BME280;25019;42.626;23.380;2023-05-22T05:41:54;94179.59;;;26.71;39.33
39301;BME280;25019;42.626;23.380;2023-05-22T05:44:20;94188.81;;;26.83;38.99
39301;BME280;25019;42.626;23.380;2023-05-22T05:46:46;94193.41;;;26.11;39.06
39301;BME280;25019;42.626;23.380;2023-05-22T05:49:14;94188.84;;;25.99;39.12
39301;BME280;25019;42.626;23.380;2023-05-22T05:51:41;94194.03;;;25.72;39.59
39301;BME280;25019;42.626;23.380;2023-05-22T05:54:07;94197.72;;;25.64;39.47
39301;BME280;25019;42.626;23.380;2023-05-22T05:56:33;94151.53;;;25.35;39.31
39301;BME280;25019;42.626;23.380;2023-05-22T05:58:59;94164.28;;;25.47;38.59
39301;BME280;25019;42.626;23.380;2023-05-22T06:01:37;94201.72;;;25.54;39.34
39301;BME280;25019;42.626;23.380;2023-05-22T06:04:06;94195.50;;;25.53;40.50
39301;BME280;25019;42.626;23.380;2023-05-22T06:06:33;94183.69;;;25.62;40.05
39301;BME280;25019;42.626;23.380;2023-05-22T06:09:09;94194.53;;;26.10;40.03
39301;BME280;25019;42.626;23.380;2023-05-22T06:11:55;94186.34;;;26.42;39.28
39301;BME280;25019;42.626;23.380;2023-05-22T06:14:21;94190.56;;;26.55;36.75
39301;BME280;25019;42.626;23.380;2023-05-22T06:16:47;94194.66;;;26.65;36.36
39301;BME280;25019;42.626;23.380;2023-05-22T06:19:13;94197.56;;;26.92;36.25
39301;BME280;25019;42.626;23.380;2023-05-22T06:21:40;94179.63;;;26.91;35.68
39301;BME280;25019;42.626;23.380;2023-05-22T06:24:05;94194.13;;;27.15;34.91
39301;BME280;25019;42.626;23.380;2023-05-22T06:26:32;94194.81;;;26.72;36.04
39301;BME280;25019;42.626;23.380;2023-05-22T06:28:57;94202.53;;;26.35;36.69
39301;BME280;25019;42.626;23.380;2023-05-22T06:31:23;94185.69;;;26.13;36.59
39301;BME280;25019;42.626;23.380;2023-05-22T06:33:52;94099.00;;;25.31;37.01
39301;BME280;25019;42.626;23.380;2023-05-22T06:36:21;94197.44;;;25.69;37.93
39301;BME280;25019;42.626;23.380;2023-05-22T06:38:46;94195.00;;;25.35;38.47
39301;BME280;25019;42.626;23.380;2023-05-22T06:41:34;94186.91;;;24.41;39.71
39301;BME280;25019;42.626;23.380;2023-05-22T06:44:01;94149.72;;;23.79;41.91
39301;BME280;25019;42.626;23.380;2023-05-22T06:46:28;94197.59;;;23.51;41.41
39301;BME280;25019;42.626;23.380;2023-05-22T06:48:59;94149.84;;;23.12;41.97
39301;BME280;25019;42.626;23.380;2023-05-22T06:51:33;94165.28;;;23.12;42.17
39301;BME280;25019;42.626;23.380;2023-05-22T06:54:07;94194.31;;;22.90;43.50
39301;BME280;25019;42.626;23.380;2023-05-22T06:56:35;94109.81;;;21.99;43.92
39301;BME280;25019;42.626;23.380;2023-05-22T06:59:04;94202.19;;;22.32;43.04
39301;BME280;25019;42.626;23.380;2023-05-22T07:01:48;94148.53;;;21.82;42.99
39301;BME280;25019;42.626;23.380;2023-05-22T07:04:18;94199.28;;;22.07;44.88
39301;BME280;25019;42.626;23.380;2023-05-22T07:06:55;94204.66;;;21.85;44.04
39301;BME280;25019;42.626;23.380;2023-05-22T07:09:22;94202.91;;;21.81;44.91
39301;BME280;25019;42.626;23.380;2023-05-22T07:11:48;94190.44;;;21.59;44.41
39301;BME280;25019;42.626;23.380;2023-05-22T07:14:14;94204.97;;;21.84;44.55
39301;BME280;25019;42.626;23.380;2023-05-22T07:16:41;94208.06;;;21.74;43.56
39301;BME280;25019;42.626;23.380;2023-05-22T07:19:07;94202.94;;;21.72;43.64
39301;BME280;25019;42.626;23.380;2023-05-22T07:21:34;94207.38;;;21.85;44.59
39301;BME280;25019;42.626;23.380;2023-05-22T07:24:02;94203.06;;;21.84;44.99
39301;BME280;25019;42.626;23.380;2023-05-22T07:26:34;94210.13;;;21.59;44.07
39301;BME280;25019;42.626;23.380;2023-05-22T07:29:04;94198.25;;;21.34;45.53
39301;BME280;25019;42.626;23.380;2023-05-22T07:31:30;94201.13;;;21.37;45.82
39301;BME280;25019;42.626;23.380;2023-05-22T07:33:58;94142.59;;;21.03;46.11
39301;BME280;25019;42.626;23.380;2023-05-22T07:36:25;94201.44;;;21.45;45.57
39301;BME280;25019;42.626;23.380;2023-05-22T07:38:51;94200.75;;;21.57;46.14
39301;BME280;25019;42.626;23.380;2023-05-22T07:41:17;94176.00;;;21.37;46.19
39301;BME280;25019;42.626;23.380;2023-05-22T07:43:43;94204.13;;;21.36;46.63
39301;BME280;25019;42.626;23.380;2023-05-22T07:48:47;94199.91;;;20.82;47.73
39301;BME280;25019;42.626;23.380;2023-05-22T07:51:13;94199.91;;;20.64;48.93
39301;BME280;25019;42.626;23.380;2023-05-22T07:53:40;94192.44;;;20.61;49.57
39301;BME280;25019;42.626;23.380;2023-05-22T07:56:06;94193.69;;;20.64;49.67
39301;BME280;25019;42.626;23.380;2023-05-22T07:58:32;94193.25;;;20.71;51.32
39301;BME280;25019;42.626;23.380;2023-05-22T08:00:59;94184.50;;;20.39;51.75
39301;BME280;25019;42.626;23.380;2023-05-22T08:03:26;94191.41;;;20.13;51.46
39301;BME280;25019;42.626;23.380;2023-05-22T08:05:51;94197.31;;;20.24;51.68
39301;BME280;25019;42.626;23.380;2023-05-22T08:08:17;94129.00;;;19.71;52.31
39301;BME280;25019;42.626;23.380;2023-05-22T08:10:42;94206.06;;;20.30;52.76
39301;BME280;25019;42.626;23.380;2023-05-22T08:13:08;94195.56;;;20.28;51.47
39301;BME280;25019;42.626;23.380;2023-05-22T08:15:34;94083.06;;;19.76;51.45
39301;BME280;25019;42.626;23.380;2023-05-22T08:18:00;94126.06;;;19.99;51.42
39301;BME280;25019;42.626;23.380;2023-05-22T08:20:26;94194.81;;;20.54;51.74
39301;BME280;25019;42.626;23.380;2023-05-22T08:22:52;94194.84;;;20.63;52.10
39301;BME280;25019;42.626;23.380;2023-05-22T08:25:19;94195.91;;;20.35;48.71
39301;BME280;25019;42.626;23.380;2023-05-22T08:27:44;94190.81;;;20.25;49.49
39301;BME280;25019;42.626;23.380;2023-05-22T08:30:10;94195.56;;;20.19;49.99
39301;BME280;25019;42.626;23.380;2023-05-22T08:32:36;94178.63;;;19.79;51.39
39301;BME280;25019;42.626;23.380;2023-05-22T08:35:02;94121.31;;;19.55;52.99
39301;BME280;25019;42.626;23.380;2023-05-22T08:37:27;94141.00;;;19.65;52.61
39301;BME280;25019;42.626;23.380;2023-05-22T08:39:53;94177.75;;;19.92;49.84
39301;BME280;25019;42.626;23.380;2023-05-22T08:42:18;94195.06;;;20.09;51.36
39301;BME280;25019;42.626;23.380;2023-05-22T08:44:46;94184.63;;;20.33;50.01
39301;BME280;25019;42.626;23.380;2023-05-22T08:47:11;94193.53;;;20.34;48.79
39301;BME280;25019;42.626;23.380;2023-05-22T08:49:39;94138.47;;;20.09;46.75
39301;BME280;25019;42.626;23.380;2023-05-22T08:52:09;94184.19;;;20.58;46.65
39301;BME280;25019;42.626;23.380;2023-05-22T08:54:40;94186.72;;;20.54;46.06
39301;BME280;25019;42.626;23.380;2023-05-22T08:57:08;94185.94;;;20.71;46.64
39301;BME280;25019;42.626;23.380;2023-05-22T08:59:37;94181.34;;;20.89;46.30
39301;BME280;25019;42.626;23.380;2023-05-22T09:02:04;94129.75;;;20.64;43.48
39301;BME280;25019;42.626;23.380;2023-05-22T09:04:30;94170.34;;;21.21;44.17
39301;BME280;25019;42.626;23.380;2023-05-22T09:06:56;94183.91;;;21.60;43.50
39301;BME280;25019;42.626;23.380;2023-05-22T09:09:21;94191.06;;;21.47;42.32
39301;BME280;25019;42.626;23.380;2023-05-22T09:11:48;94190.78;;;21.48;42.95
39301;BME280;25019;42.626;23.380;2023-05-22T09:14:14;94190.88;;;21.61;43.75
39301;BME280;25019;42.626;23.380;2023-05-22T09:16:48;94191.72;;;21.61;42.40
39301;BME280;25019;42.626;23.380;2023-05-22T09:19:16;94188.38;;;21.55;41.22
39301;BME280;25019;42.626;23.380;2023-05-22T09:21:41;94177.28;;;21.39;41.42
39301;BME280;25019;42.626;23.380;2023-05-22T09:24:09;94171.53;;;21.50;41.98
39301;BME280;25019;42.626;23.380;2023-05-22T09:26:35;94170.34;;;21.77;42.21
39301;BME280;25019;42.626;23.380;2023-05-22T09:29:01;94186.00;;;22.23;41.61
39301;BME280;25019;42.626;23.380;2023-05-22T09:31:28;94179.56;;;22.36;41.20
39301;BME280;25019;42.626;23.380;2023-05-22T09:33:54;94164.56;;;22.69;40.41
39301;BME280;25019;42.626;23.380;2023-05-22T09:36:20;94175.22;;;22.86;38.73
39301;BME280;25019;42.626;23.380;2023-05-22T09:38:47;94113.59;;;22.50;38.60
39301;BME280;25019;42.626;23.380;2023-05-22T09:41:12;94182.22;;;22.87;39.18
39301;BME280;25019;42.626;23.380;2023-05-22T09:43:50;94124.88;;;22.52;39.28
39301;BME280;25019;42.626;23.380;2023-05-22T09:46:16;94183.81;;;22.88;39.35
39301;BME280;25019;42.626;23.380;2023-05-22T09:48:42;94176.53;;;23.01;38.18
39301;BME280;25019;42.626;23.380;2023-05-22T09:51:09;94122.78;;;22.57;38.20
39301;BME280;25019;42.626;23.380;2023-05-22T09:53:35;94178.53;;;22.92;38.86
39301;BME280;25019;42.626;23.380;2023-05-22T09:56:06;94174.25;;;22.91;38.50
39301;BME280;25019;42.626;23.380;2023-05-22T09:58:39;94109.59;;;22.56;38.56
39301;BME280;25019;42.626;23.380;2023-05-22T10:01:06;94167.28;;;23.02;38.74
39301;BME280;25019;42.626;23.380;2023-05-22T10:03:34;94179.78;;;23.28;37.54
39301;BME280;25019;42.626;23.380;2023-05-22T10:06:03;94164.16;;;23.46;37.25
39301;BME280;25019;42.626;23.380;2023-05-22T10:08:37;94176.66;;;23.97;37.59
39301;BME280;25019;42.626;23.380;2023-05-22T10:11:06;94174.72;;;24.22;36.82
39301;BME280;25019;42.626;23.380;2023-05-22T10:13:33;94148.03;;;23.87;37.50
39301;BME280;25019;42.626;23.380;2023-05-22T10:16:00;94174.03;;;24.13;36.71
39301;BME280;25019;42.626;23.380;2023-05-22T10:18:27;94129.16;;;23.78;37.95
39301;BME280;25019;42.626;23.380;2023-05-22T10:20:53;94175.94;;;23.75;37.97
39301;BME280;25019;42.626;23.380;2023-05-22T10:23:19;94169.31;;;23.27;38.28
39301;BME280;25019;42.626;23.380;2023-05-22T10:25:47;94175.75;;;22.80;38.71
39301;BME280;25019;42.626;23.380;2023-05-22T10:28:23;94176.75;;;22.54;39.62
39301;BME280;25019;42.626;23.380;2023-05-22T10:34:17;94189.09;;;21.17;45.59
39301;BME280;25019;42.626;23.380;2023-05-22T10:37:15;94183.69;;;20.29;51.86
39301;BME280;25019;42.626;23.380;2023-05-22T10:40:13;94198.78;;;18.95;64.66
39301;BME280;25019;42.626;23.380;2023-05-22T10:42:42;94112.34;;;17.78;70.55
39301;BME280;25019;42.626;23.380;2023-05-22T10:45:09;94179.19;;;18.21;73.67
39301;BME280;25019;42.626;23.380;2023-05-22T10:47:35;94181.66;;;18.18;74.92
39301;BME280;25019;42.626;23.380;2023-05-22T10:50:11;94191.69;;;18.26;74.26
39301;BME280;25019;42.626;23.380;2023-05-22T10:52:38;94178.94;;;18.32;72.19
39301;BME280;25019;42.626;23.380;2023-05-22T10:55:08;94159.41;;;18.40;74.68
39301;BME280;25019;42.626;23.380;2023-05-22T10:57:36;94144.38;;;18.62;72.76
39301;BME280;25019;42.626;23.380;2023-05-22T11:02:37;94172.72;;;19.68;67.38
39301;BME280;25019;42.626;23.380;2023-05-22T11:07:47;94046.03;;;19.41;65.23
39301;BME280;25019;42.626;23.380;2023-05-22T11:10:12;94174.47;;;20.39;62.80
39301;BME280;25019;42.626;23.380;2023-05-22T11:12:38;94171.78;;;20.39;62.54
39301;BME280;25019;42.626;23.380;2023-05-22T11:20:10;94199.88;;;19.17;64.79
39301;BME280;25019;42.626;23.380;2023-05-22T11:22:41;94197.41;;;18.61;62.75
39301;BME280;25019;42.626;23.380;2023-05-22T11:25:17;94195.28;;;18.35;62.17
39301;BME280;25019;42.626;23.380;2023-05-22T11:27:43;94133.91;;;18.01;58.51
39301;BME280;25019;42.626;23.380;2023-05-22T11:30:10;94182.38;;;18.23;55.69
39301;BME280;25019;42.626;23.380;2023-05-22T11:32:37;94214.69;;;18.32;55.91
39301;BME280;25019;42.626;23.380;2023-05-22T11:35:04;94215.25;;;18.43;56.16
39301;BME280;25019;42.626;23.380;2023-05-22T11:37:30;94209.34;;;18.55;55.79
39301;BME280;25019;42.626;23.380;2023-05-22T11:40:01;94233.00;;;18.44;56.42
39301;BME280;25019;42.626;23.380;2023-05-22T11:42:28;94231.69;;;18.27;59.12
39301;BME280;25019;42.626;23.380;2023-05-22T11:44:54;94240.09;;;18.12;62.64
39301;BME280;25019;42.626;23.380;2023-05-22T11:47:20;94249.00;;;17.65;67.13
39301;BME280;25019;42.626;23.380;2023-05-22T11:49:46;94247.56;;;17.07;72.54
39301;BME280;25019;42.626;23.380;2023-05-22T11:52:12;94192.16;;;16.26;76.72
39301;BME280;25019;42.626;23.380;2023-05-22T11:54:37;94240.81;;;16.33;80.40
39301;BME280;25019;42.626;23.380;2023-05-22T11:57:05;94228.41;;;16.18;81.64
39301;BME280;25019;42.626;23.380;2023-05-22T11:59:31;94234.00;;;16.22;88.03
39301;BME280;25019;42.626;23.380;2023-05-22T12:01:56;94223.34;;;16.16;92.89
39301;BME280;25019;42.626;23.380;2023-05-22T12:04:23;94220.38;;;15.99;94.86
39301;BME280;25019;42.626;23.380;2023-05-22T12:06:50;94243.78;;;15.88;95.20
39301;BME280;25019;42.626;23.380;2023-05-22T12:09:15;94237.47;;;15.73;97.77
39301;BME280;25019;42.626;23.380;2023-05-22T12:11:45;94235.88;;;15.72;99.54
39301;BME280;25019;42.626;23.380;2023-05-22T12:14:11;94190.19;;;15.39;99.43
39301;BME280;25019;42.626;23.380;2023-05-22T12:16:37;94132.78;;;15.02;98.61
39301;BME280;25019;42.626;23.380;2023-05-22T12:19:05;94230.44;;;15.83;99.22
39301;BME280;25019;42.626;23.380;2023-05-22T12:21:30;94148.97;;;15.40;98.30
39301;BME280;25019;42.626;23.380;2023-05-22T12:23:56;94234.63;;;16.13;96.51
39301;BME280;25019;42.626;23.380;2023-05-22T12:26:22;94234.03;;;16.41;95.39
39301;BME280;25019;42.626;23.380;2023-05-22T12:28:53;94227.50;;;16.66;88.73
39301;BME280;25019;42.626;23.380;2023-05-22T12:31:20;94212.69;;;16.88;85.28
39301;BME280;25019;42.626;23.380;2023-05-22T12:33:46;94223.69;;;17.25;85.20
39301;BME280;25019;42.626;23.380;2023-05-22T12:36:12;94215.78;;;17.47;83.14
39301;BME280;25019;42.626;23.380;2023-05-22T12:38:37;94092.47;;;17.09;80.87
39301;BME280;25019;42.626;23.380;2023-05-22T12:41:06;94209.63;;;18.17;81.26
39301;BME280;25019;42.626;23.380;2023-05-22T12:43:31;94204.09;;;18.50;79.25
39301;BME280;25019;42.626;23.380;2023-05-22T12:45:57;94207.28;;;18.75;75.95
39301;BME280;25019;42.626;23.380;2023-05-22T12:48:23;94195.59;;;18.93;72.54
39301;BME280;25019;42.626;23.380;2023-05-22T12:50:48;94200.53;;;19.23;68.80
39301;BME280;25019;42.626;23.380;2023-05-22T12:53:14;94199.09;;;19.48;67.25
39301;BME280;25019;42.626;23.380;2023-05-22T12:55:40;94191.25;;;19.69;67.23
39301;BME280;25019;42.626;23.380;2023-05-22T12:58:05;94137.16;;;19.48;64.09
39301;BME280;25019;42.626;23.380;2023-05-22T13:00:31;94106.09;;;19.42;62.61
39301;BME280;25019;42.626;23.380;2023-05-22T13:02:57;94194.31;;;20.26;60.63
39301;BME280;25019;42.626;23.380;2023-05-22T13:05:23;94200.19;;;20.36;61.97
39301;BME280;25019;42.626;23.380;2023-05-22T13:07:48;94193.03;;;20.23;59.08
39301;BME280;25019;42.626;23.380;2023-05-22T13:10:14;94189.03;;;20.12;58.17
39301;BME280;25019;42.626;23.380;2023-05-22T13:12:40;94072.78;;;19.29;58.56
39301;BME280;25019;42.626;23.380;2023-05-22T13:15:07;94184.75;;;20.02;59.34
39301;BME280;25019;42.626;23.380;2023-05-22T13:17:32;94124.72;;;19.70;55.51
39301;BME280;25019;42.626;23.380;2023-05-22T13:19:58;94187.31;;;20.25;57.55